createdAt,value
2024-05-09T00:02:32.033Z,98.80
2024-05-09T00:05:18.031Z,98.90
2024-05-09T00:08:04.025Z,98.80
2024-05-09T00:10:50.019Z,98.80
2024-05-09T00:13:35.966Z,98.80
2024-05-09T00:16:21.911Z,98.80
2024-05-09T00:19:07.995Z,98.80
2024-05-09T00:21:53.816Z,98.80
2024-05-09T00:24:39.684Z,98.80
2024-05-09T00:27:25.544Z,98.80
2024-05-09T00:30:17.489Z,98.90
2024-05-09T00:33:09.879Z,98.80
2024-05-09T00:35:57.060Z,98.90
2024-05-09T00:38:43.133Z,98.90
2024-05-09T00:41:28.943Z,98.90
2024-05-09T00:44:14.924Z,98.80
2024-05-09T00:47:00.835Z,98.70
2024-05-09T00:49:46.837Z,98.60
2024-05-09T00:52:33.200Z,98.40
2024-05-09T00:55:19.215Z,98.50
2024-05-09T00:58:05.695Z,98.20
2024-05-09T01:00:51.929Z,97.80
2024-05-09T01:03:37.829Z,98.40
2024-05-09T01:06:24.247Z,98.00
2024-05-09T01:09:09.998Z,98.10
2024-05-09T01:11:56.074Z,98.20
2024-05-09T01:14:42.012Z,98.10
2024-05-09T01:17:28.260Z,98.20
2024-05-09T01:20:20.191Z,98.00
2024-05-09T01:23:15.906Z,98.00
2024-05-09T01:26:02.665Z,98.00
2024-05-09T01:28:48.553Z,97.90
2024-05-09T01:31:34.486Z,98.00
2024-05-09T01:39:52.903Z,98.30
2024-05-09T01:42:38.918Z,97.90
2024-05-09T01:45:24.952Z,98.10
2024-05-09T01:48:11.634Z,98.10
2024-05-09T01:50:57.935Z,98.10
2024-05-09T01:53:44.782Z,98.10
2024-05-09T01:56:30.986Z,98.10
2024-05-09T01:59:17.083Z,98.10
2024-05-09T02:02:03.135Z,98.00
2024-05-09T02:04:50.083Z,98.00
2024-05-09T02:07:36.216Z,97.90
2024-05-09T02:10:26.568Z,97.80
2024-05-09T02:13:18.786Z,97.60
2024-05-09T02:16:04.779Z,97.50
2024-05-09T02:18:51.483Z,97.60
2024-05-09T02:21:37.459Z,97.40
2024-05-09T02:24:23.205Z,97.50
2024-05-09T02:27:09.261Z,97.40
2024-05-09T02:29:55.242Z,97.50
2024-05-09T02:32:41.180Z,97.60
2024-05-09T02:35:27.782Z,97.40
2024-05-09T02:38:13.785Z,97.00
2024-05-09T02:40:59.950Z,97.00
2024-05-09T02:43:45.903Z,97.10
2024-05-09T02:46:31.665Z,97.10
2024-05-09T02:49:17.703Z,96.90
2024-05-09T02:52:03.952Z,97.20
2024-05-09T02:54:49.843Z,97.10
2024-05-09T02:57:35.927Z,97.20
2024-05-09T03:00:26.764Z,97.00
2024-05-09T03:03:21.143Z,96.80
2024-05-09T03:06:07.300Z,97.00
2024-05-09T03:08:53.142Z,96.80
2024-05-09T03:11:40.570Z,97.00
2024-05-09T03:14:26.637Z,96.90
2024-05-09T03:17:12.412Z,96.90
2024-05-09T03:19:59.006Z,97.00
2024-05-09T03:22:44.979Z,97.00
2024-05-09T03:25:31.263Z,97.20
2024-05-09T03:28:17.232Z,97.10
2024-05-09T03:31:03.399Z,97.00
2024-05-09T03:33:49.809Z,96.90
2024-05-09T03:36:36.067Z,97.10
2024-05-09T03:39:22.137Z,97.10
2024-05-09T03:42:08.170Z,97.10
2024-05-09T03:44:53.905Z,97.30
2024-05-09T03:47:39.970Z,97.30
2024-05-09T03:50:33.563Z,97.10
2024-05-09T03:53:22.925Z,97.30
2024-05-09T03:56:09.175Z,97.40
2024-05-09T03:58:55.691Z,97.30
2024-05-09T04:01:41.873Z,97.40
2024-05-09T04:04:27.855Z,97.40
2024-05-09T04:07:13.598Z,97.60
2024-05-09T04:09:59.749Z,97.60
2024-05-09T04:12:45.507Z,97.80
2024-05-09T04:15:31.617Z,97.90
2024-05-09T04:18:18.593Z,98.20
2024-05-09T04:21:05.212Z,98.20
2024-05-09T04:23:51.212Z,98.30
2024-05-09T04:26:37.204Z,98.30
2024-05-09T04:29:23.038Z,98.00
2024-05-09T04:32:09.121Z,97.90
2024-05-09T04:34:54.980Z,98.00
2024-05-09T04:37:41.535Z,98.00
2024-05-09T04:40:33.213Z,98.10
2024-05-09T04:43:22.176Z,98.00
2024-05-09T04:46:07.931Z,98.10
2024-05-09T04:48:54.142Z,98.20
2024-05-09T04:51:41.951Z,98.40
2024-05-09T04:54:34.308Z,98.40
2024-05-09T04:57:22.564Z,98.40
2024-05-09T05:00:14.628Z,98.50
2024-05-09T05:03:10.524Z,98.60
2024-05-09T05:05:58.554Z,98.60
2024-05-09T05:08:44.354Z,98.60
2024-05-09T05:11:30.406Z,98.70
2024-05-09T05:14:16.286Z,98.80
2024-05-09T05:17:02.206Z,98.80
2024-05-09T05:19:48.307Z,98.80
2024-05-09T05:22:34.022Z,98.80
2024-05-09T05:25:19.899Z,98.90
2024-05-09T05:28:06.346Z,99.10
2024-05-09T05:30:52.441Z,99.10
2024-05-09T05:33:38.530Z,99.10
2024-05-09T05:36:24.365Z,99.20
2024-05-09T05:39:10.311Z,99.20
2024-05-09T05:41:56.370Z,99.20
2024-05-09T05:44:42.329Z,99.30
2024-05-09T05:47:28.379Z,99.50
2024-05-09T05:50:23.597Z,99.60
2024-05-09T05:53:13.746Z,99.60
2024-05-09T05:56:00.142Z,99.80
2024-05-09T05:58:46.411Z,99.90
2024-05-09T06:01:32.316Z,99.90
2024-05-09T06:04:18.302Z,99.90
2024-05-09T06:07:04.344Z,99.90
2024-05-09T06:09:50.564Z,99.90
2024-05-09T06:12:37.439Z,99.90
2024-05-09T06:15:23.551Z,99.90
2024-05-09T06:18:10.978Z,99.90
2024-05-09T06:20:58.053Z,99.90
2024-05-09T06:23:48.375Z,99.90
2024-05-09T06:26:34.538Z,99.90
2024-05-09T06:29:20.473Z,99.90
2024-05-09T06:32:07.108Z,99.90
2024-05-09T06:34:53.192Z,99.90
2024-05-09T06:37:38.989Z,99.90
2024-05-09T06:40:29.480Z,99.90
2024-05-09T06:43:21.552Z,99.90
2024-05-09T06:46:07.627Z,99.90
2024-05-09T06:48:54.065Z,99.90
2024-05-09T06:51:40.807Z,99.90
2024-05-09T06:54:26.673Z,99.90
2024-05-09T06:57:12.634Z,99.90
2024-05-09T07:00:00.799Z,99.90
2024-05-09T07:02:47.993Z,99.90
2024-05-09T07:05:34.143Z,99.90
2024-05-09T07:08:20.096Z,99.90
2024-05-09T07:11:06.109Z,99.90
2024-05-09T07:13:52.160Z,99.90
2024-05-09T07:16:38.418Z,99.90
2024-05-09T07:19:24.309Z,99.90
2024-05-09T07:22:10.247Z,99.90
2024-05-09T07:24:56.176Z,99.90
2024-05-09T07:27:42.052Z,99.90
2024-05-09T07:30:33.303Z,99.90
2024-05-09T07:33:23.586Z,99.90
2024-05-09T07:36:10.468Z,99.90
2024-05-09T07:38:56.358Z,99.90
2024-05-09T07:41:42.358Z,99.90
2024-05-09T07:44:30.457Z,99.90
2024-05-09T07:48:28.939Z,99.90
2024-05-09T07:53:37.176Z,99.90
2024-05-09T07:56:19.891Z,99.90
2024-05-09T07:59:07.957Z,99.90
2024-05-09T08:01:55.023Z,99.90
2024-05-09T08:04:40.882Z,99.90
2024-05-09T08:07:26.729Z,99.90
2024-05-09T08:10:15.406Z,99.90
2024-05-09T08:13:04.830Z,99.90
2024-05-09T08:15:52.468Z,99.90
2024-05-09T08:18:38.713Z,99.90
2024-05-09T08:21:25.069Z,99.90
2024-05-09T08:24:11.694Z,97.70
2024-05-09T08:26:57.735Z,96.40
2024-05-09T08:29:44.031Z,95.30
2024-05-09T08:32:32.327Z,95.60
2024-05-09T08:35:18.273Z,95.10
2024-05-09T08:38:06.296Z,94.00
2024-05-09T08:40:52.908Z,93.70
2024-05-09T08:43:40.658Z,93.00
2024-05-09T08:46:30.577Z,93.70
2024-05-09T08:49:16.691Z,92.50
2024-05-09T08:52:02.831Z,93.00
2024-05-09T08:54:48.894Z,93.60
2024-05-09T08:57:36.712Z,91.10
2024-05-09T09:00:33.413Z,92.10
2024-05-09T09:03:30.950Z,92.00
2024-05-09T09:06:21.423Z,92.10
2024-05-09T09:09:07.676Z,91.00
2024-05-09T09:11:54.657Z,90.40
2024-05-09T09:14:40.568Z,92.00
2024-05-09T09:17:26.667Z,90.80
2024-05-09T09:20:16.584Z,89.10
2024-05-09T09:23:05.148Z,89.70
2024-05-09T09:25:51.995Z,90.10
2024-05-09T09:28:38.231Z,88.80
2024-05-09T09:31:24.492Z,87.70
2024-05-09T09:34:10.536Z,90.50
2024-05-09T09:37:05.911Z,88.90
2024-05-09T09:39:52.036Z,89.50
2024-05-09T09:42:38.397Z,86.30
2024-05-09T09:45:26.610Z,87.00
2024-05-09T09:48:15.093Z,88.10
2024-05-09T09:51:01.558Z,85.70
2024-05-09T09:53:49.373Z,86.60
2024-05-09T09:56:39.509Z,85.10
2024-05-09T09:59:26.227Z,86.20
2024-05-09T10:02:13.916Z,84.50
2024-05-09T10:05:01.306Z,80.20
2024-05-09T10:07:47.792Z,83.10
2024-05-09T10:10:35.816Z,83.30
2024-05-09T10:13:33.396Z,84.20
2024-05-09T10:16:23.165Z,84.10
2024-05-09T10:19:09.353Z,81.90
2024-05-09T10:22:01.686Z,80.60
2024-05-09T10:24:52.943Z,83.10
2024-05-09T10:27:39.475Z,84.70
2024-05-09T10:30:33.816Z,80.90
2024-05-09T10:33:21.875Z,80.80
2024-05-09T10:36:14.983Z,82.40
2024-05-09T10:39:00.854Z,81.90
2024-05-09T10:41:46.759Z,81.00
2024-05-09T10:44:38.210Z,79.90
2024-05-09T10:47:25.980Z,79.10
2024-05-09T10:50:18.576Z,77.50
2024-05-09T10:53:11.528Z,79.20
2024-05-09T10:56:01.537Z,78.90
2024-05-09T10:58:48.202Z,76.80
2024-05-09T11:01:34.085Z,78.70
2024-05-09T11:04:20.515Z,76.60
2024-05-09T11:07:10.842Z,76.40
2024-05-09T11:09:56.865Z,76.70
2024-05-09T11:12:46.400Z,74.00
2024-05-09T11:15:41.903Z,73.20
2024-05-09T11:18:32.335Z,77.10
2024-05-09T11:21:21.449Z,78.20
2024-05-09T11:24:10.508Z,76.20
2024-05-09T11:27:03.485Z,77.00
2024-05-09T11:29:48.976Z,76.00
2024-05-09T11:32:38.200Z,77.60
2024-05-09T11:35:25.873Z,76.10
2024-05-09T11:38:11.705Z,77.70
2024-05-09T11:40:57.696Z,74.90
2024-05-09T11:43:43.639Z,75.50
2024-05-09T11:46:29.551Z,74.00
2024-05-09T11:49:15.734Z,75.00
2024-05-09T11:52:01.564Z,74.10
2024-05-09T11:54:47.505Z,74.80
2024-05-09T11:57:33.522Z,74.60
2024-05-09T12:00:29.062Z,73.40
2024-05-09T12:03:20.927Z,73.50
2024-05-09T12:06:06.999Z,70.40
2024-05-09T12:08:53.744Z,73.80
2024-05-09T12:11:40.139Z,72.20
2024-05-09T12:14:26.269Z,71.80
2024-05-09T12:17:13.631Z,71.30
2024-05-09T12:20:00.036Z,70.90
2024-05-09T12:22:47.647Z,73.60
2024-05-09T12:25:33.992Z,72.10
2024-05-09T12:28:20.805Z,68.90
2024-05-09T12:31:06.805Z,70.80
2024-05-09T12:33:54.678Z,71.50
2024-05-09T12:36:40.785Z,69.70
2024-05-09T12:39:26.752Z,67.80
2024-05-09T12:42:22.318Z,68.10
2024-05-09T12:45:12.644Z,69.20
2024-05-09T12:47:59.019Z,68.40
2024-05-09T12:50:45.141Z,67.90
2024-05-09T12:53:30.886Z,66.30
2024-05-09T12:56:16.916Z,68.30
2024-05-09T12:59:02.778Z,67.50
2024-05-09T13:01:48.710Z,83.40
2024-05-09T13:04:35.488Z,67.90
2024-05-09T13:07:21.743Z,65.90
2024-05-09T13:10:13.945Z,64.40
2024-05-09T13:13:05.824Z,66.80
2024-05-09T13:15:51.915Z,62.50
2024-05-09T13:18:38.055Z,64.90
2024-05-09T13:21:24.255Z,65.60
2024-05-09T13:24:10.170Z,66.60
2024-05-09T13:26:56.284Z,64.00
2024-05-09T13:29:44.212Z,64.90
2024-05-09T13:32:30.180Z,65.10
2024-05-09T13:35:16.085Z,64.40
2024-05-09T13:38:02.765Z,66.30
2024-05-09T13:40:49.382Z,64.50
2024-05-09T13:43:36.335Z,64.30
2024-05-09T13:46:22.662Z,65.70
2024-05-09T13:49:10.735Z,63.30
2024-05-09T13:51:58.246Z,65.40
2024-05-09T13:54:44.233Z,65.80
2024-05-09T13:57:30.111Z,65.40
2024-05-09T14:00:27.382Z,65.20
2024-05-09T14:03:22.140Z,66.00
2024-05-09T14:06:10.536Z,64.40
2024-05-09T14:08:57.950Z,65.20
2024-05-09T14:11:44.014Z,64.30
2024-05-09T14:14:29.837Z,64.00
2024-05-09T14:17:15.923Z,64.60
2024-05-09T14:20:01.747Z,63.50
2024-05-09T14:22:47.767Z,62.10
2024-05-09T14:25:38.661Z,62.80
2024-05-09T14:28:27.974Z,62.40
2024-05-09T14:31:14.097Z,62.70
2024-05-09T14:34:00.151Z,62.10
2024-05-09T14:36:46.458Z,60.50
2024-05-09T14:39:32.381Z,61.90
2024-05-09T14:42:18.269Z,62.70
2024-05-09T14:45:06.165Z,62.00
2024-05-09T14:47:52.419Z,64.00
2024-05-09T14:50:40.282Z,63.80
2024-05-09T14:53:28.401Z,61.30
2024-05-09T14:56:14.869Z,62.10
2024-05-09T14:59:00.618Z,60.90
2024-05-09T15:01:46.667Z,61.20
2024-05-09T15:04:32.492Z,60.10
2024-05-09T15:07:18.491Z,60.90
2024-05-09T15:10:09.055Z,60.00
2024-05-09T15:12:59.455Z,62.60
2024-05-09T15:15:45.546Z,61.50
2024-05-09T15:18:31.687Z,62.20
2024-05-09T15:21:17.842Z,60.30
2024-05-09T15:24:03.646Z,60.90
2024-05-09T15:26:49.691Z,61.40
2024-05-09T15:29:35.715Z,60.00
2024-05-09T15:32:21.630Z,62.10
2024-05-09T15:35:07.679Z,59.60
2024-05-09T15:37:53.832Z,60.60
2024-05-09T15:40:40.898Z,61.30
2024-05-09T15:43:28.069Z,59.40
2024-05-09T15:46:14.700Z,60.20
2024-05-09T15:49:01.562Z,61.60
2024-05-09T15:51:47.743Z,62.00
2024-05-09T15:54:33.755Z,61.20
2024-05-09T15:57:19.885Z,59.90
2024-05-09T16:00:12.232Z,62.10
2024-05-09T16:03:04.076Z,62.10
2024-05-09T16:05:51.808Z,61.30
2024-05-09T16:08:37.966Z,61.00
2024-05-09T16:11:24.250Z,60.90
2024-05-09T16:14:10.439Z,62.50
2024-05-09T16:16:56.505Z,62.30
2024-05-09T16:19:42.708Z,60.40
2024-05-09T16:22:28.784Z,60.00
2024-05-09T16:25:14.774Z,60.80
2024-05-09T16:28:00.891Z,62.30
2024-05-09T16:30:47.227Z,60.30
2024-05-09T16:33:33.468Z,61.50
2024-05-09T16:36:19.786Z,61.80
2024-05-09T16:39:06.049Z,60.90
2024-05-09T16:41:52.212Z,61.50
2024-05-09T16:44:38.052Z,62.20
2024-05-09T16:47:24.173Z,62.90
2024-05-09T16:50:10.775Z,61.90
2024-05-09T16:52:59.113Z,61.60
2024-05-09T16:55:45.279Z,62.20
2024-05-09T16:58:31.589Z,62.70
2024-05-09T17:01:17.575Z,62.40
2024-05-09T17:04:03.746Z,62.30
2024-05-09T17:06:51.118Z,62.20
2024-05-09T17:09:37.007Z,61.70
2024-05-09T17:12:22.850Z,62.60
2024-05-09T17:15:08.928Z,62.50
2024-05-09T17:17:55.506Z,63.30
2024-05-09T17:20:41.333Z,63.10
2024-05-09T17:23:28.162Z,63.30
2024-05-09T17:26:15.005Z,63.90
2024-05-09T17:29:01.054Z,65.00
2024-05-09T17:31:47.116Z,64.80
2024-05-09T17:34:33.393Z,65.20
2024-05-09T17:37:19.833Z,65.80
2024-05-09T17:40:14.352Z,65.70
2024-05-09T17:43:03.496Z,66.80
2024-05-09T17:45:49.908Z,67.10
2024-05-09T17:48:36.135Z,66.70
2024-05-09T17:51:22.276Z,68.00
2024-05-09T17:54:08.502Z,67.40
2024-05-09T17:56:54.557Z,68.50
2024-05-09T17:59:40.392Z,68.80
2024-05-09T18:02:26.594Z,68.60
2024-05-09T18:05:12.442Z,70.00
2024-05-09T18:07:58.440Z,71.00
2024-05-09T18:10:44.619Z,71.60
2024-05-09T18:13:31.266Z,73.00
2024-05-09T18:16:18.196Z,72.30
2024-05-09T18:19:04.790Z,73.30
2024-05-09T18:21:50.722Z,74.10
2024-05-09T18:24:36.823Z,75.00
2024-05-09T18:27:23.512Z,75.30
2024-05-09T18:30:23.740Z,75.70
2024-05-09T18:33:14.050Z,76.00
2024-05-09T18:36:00.198Z,75.80
2024-05-09T18:38:46.050Z,76.20
2024-05-09T18:41:32.288Z,75.80
2024-05-09T18:44:18.553Z,76.50
2024-05-09T18:47:05.045Z,76.70
2024-05-09T18:49:51.498Z,76.40
2024-05-09T18:52:37.897Z,76.60
2024-05-09T18:55:23.970Z,76.20
2024-05-09T18:58:10.901Z,76.90
2024-05-09T19:00:59.913Z,76.80
2024-05-09T19:03:48.486Z,76.70
2024-05-09T19:06:36.399Z,77.00
2024-05-09T19:09:23.107Z,77.10
2024-05-09T19:12:09.549Z,77.00
2024-05-09T19:14:55.505Z,76.90
2024-05-09T19:17:41.672Z,77.40
2024-05-09T19:20:33.396Z,77.00
2024-05-09T19:23:20.940Z,77.50
2024-05-09T19:26:08.535Z,77.10
2024-05-09T19:28:54.432Z,77.00
2024-05-09T19:31:40.379Z,77.50
2024-05-09T19:34:26.635Z,78.20
2024-05-09T19:37:12.608Z,77.50
2024-05-09T19:39:58.790Z,77.00
2024-05-09T19:42:44.948Z,77.10
2024-05-09T19:45:32.313Z,77.10
2024-05-09T19:48:19.164Z,77.60
2024-05-09T19:51:05.660Z,76.30
2024-05-09T19:53:51.635Z,78.40
2024-05-09T19:56:40.383Z,77.40
2024-05-09T19:59:26.785Z,77.40
2024-05-09T20:02:13.403Z,76.80
2024-05-09T20:05:02.283Z,76.00
2024-05-09T20:07:48.520Z,77.60
2024-05-09T20:10:36.235Z,76.80
2024-05-09T20:13:22.976Z,77.80
2024-05-09T20:16:09.431Z,77.00
2024-05-09T20:18:55.561Z,77.20
2024-05-09T20:21:44.705Z,76.70
2024-05-09T20:24:30.854Z,77.80
2024-05-09T20:27:16.894Z,77.50
2024-05-09T20:30:03.965Z,80.70
2024-05-09T20:32:52.686Z,78.30
2024-05-09T20:35:38.615Z,78.50
2024-05-09T20:38:24.680Z,79.10
2024-05-09T20:41:10.567Z,78.50
2024-05-09T20:44:00.513Z,77.80
2024-05-09T20:46:46.409Z,78.00
2024-05-09T20:49:32.372Z,78.10
2024-05-09T20:52:18.766Z,79.20
2024-05-09T20:55:05.111Z,78.40
2024-05-09T20:57:52.126Z,79.00
2024-05-09T21:00:41.920Z,78.90
2024-05-09T21:03:32.620Z,81.30
2024-05-09T21:06:18.981Z,82.30
2024-05-09T21:09:05.199Z,79.00
2024-05-09T21:11:51.506Z,79.00
2024-05-09T21:14:37.975Z,80.30
2024-05-09T21:17:23.877Z,79.10
2024-05-09T21:20:16.897Z,79.00
2024-05-09T21:23:06.234Z,79.30
2024-05-09T21:25:52.437Z,78.80
2024-05-09T21:28:38.842Z,78.70
2024-05-09T21:31:24.859Z,80.10
2024-05-09T21:34:11.200Z,79.20
2024-05-09T21:36:57.365Z,79.30
2024-05-09T21:39:43.776Z,79.40
2024-05-09T21:42:29.928Z,79.80
2024-05-09T21:45:15.893Z,79.70
2024-05-09T21:48:04.037Z,79.70
2024-05-09T21:50:49.981Z,80.10
2024-05-09T21:53:37.819Z,80.40
2024-05-09T21:56:23.886Z,80.70
2024-05-09T21:59:09.885Z,80.70
2024-05-09T22:01:56.020Z,80.50
2024-05-09T22:04:42.351Z,81.50
2024-05-09T22:07:28.974Z,80.90
2024-05-09T22:10:22.778Z,81.50
2024-05-09T22:13:15.639Z,81.50
2024-05-09T22:16:05.991Z,81.90
2024-05-09T22:18:52.077Z,82.00
2024-05-09T22:21:38.416Z,81.90
2024-05-09T22:24:24.363Z,82.20
2024-05-09T22:27:11.837Z,82.20
2024-05-09T22:29:57.747Z,82.70
2024-05-09T22:32:43.776Z,82.80
2024-05-09T22:35:30.293Z,83.00
2024-05-09T22:38:17.055Z,82.40
2024-05-09T22:41:08.042Z,82.70
2024-05-09T22:43:54.810Z,83.30
2024-05-09T22:46:40.743Z,83.10
2024-05-09T22:49:28.057Z,83.50
2024-05-09T22:52:14.355Z,83.40
2024-05-09T22:55:00.104Z,83.70
2024-05-09T22:57:46.655Z,83.90
2024-05-09T23:00:33.614Z,84.10
2024-05-09T23:03:21.769Z,84.50
2024-05-09T23:06:09.287Z,83.80
2024-05-09T23:08:55.313Z,84.90
2024-05-09T23:11:42.102Z,84.00
2024-05-09T23:14:28.289Z,84.10
2024-05-09T23:17:14.385Z,84.70
2024-05-09T23:20:00.667Z,84.40
2024-05-09T23:22:46.903Z,85.10
2024-05-09T23:25:32.774Z,85.30
2024-05-09T23:28:18.838Z,84.80
2024-05-09T23:31:05.234Z,85.50
2024-05-09T23:33:51.516Z,85.50
2024-05-09T23:36:38.537Z,85.10
2024-05-09T23:42:11.239Z,85.00
2024-05-09T23:44:58.438Z,85.30
2024-05-09T23:47:45.103Z,85.40
2024-05-09T23:50:35.550Z,85.90
2024-05-09T23:53:23.869Z,85.10
2024-05-09T23:56:09.679Z,85.30
2024-05-09T23:58:56.025Z,85.40
